Time;durP1;ratioP1;P1;durP2;ratioP2;P2;SDS_P1;SDS_P2;PMS_P1;PMS_P2;Temp;Humidity;BMP_temperature;BMP_pressure;BME280_temperature;BME280_humidity;BME280_pressure;Samples;Min_cycle;Max_cycle;Signal;HPM_P1;HPM_P2
2022/01/03 00:01:28;;;;;;;15.07;9.00;;;8.20;99.90;;;;;;5039962;28;20079;-84
2022/01/03 00:03:55;;;;;;;12.98;8.38;;;8.20;99.90;;;;;;5030999;28;20060;-83
2022/01/03 00:06:21;;;;;;;17.58;7.78;;;8.20;99.90;;;;;;5031822;28;20041;-83
2022/01/03 00:08:47;;;;;;;11.60;7.15;;;8.20;99.90;;;;;;5029525;28;20025;-83
2022/01/03 00:11:16;;;;;;;13.73;7.63;;;8.10;99.90;;;;;;5029647;28;20383;-83
2022/01/03 00:13:45;;;;;;;15.82;8.68;;;8.10;99.90;;;;;;5033382;28;20031;-83
2022/01/03 00:16:11;;;;;;;13.82;8.90;;;8.10;99.90;;;;;;5034588;28;20387;-83
2022/01/03 00:18:38;;;;;;;13.23;7.60;;;8.10;99.90;;;;;;5033163;28;20537;-83
2022/01/03 00:21:07;;;;;;;13.10;8.13;;;8.10;99.90;;;;;;5033144;28;20068;-83
2022/01/03 00:23:36;;;;;;;15.65;9.45;;;8.10;99.90;;;;;;5033020;28;20017;-83
2022/01/03 00:26:03;;;;;;;14.73;9.27;;;8.10;99.90;;;;;;5033091;28;20041;-83
2022/01/03 00:28:34;;;;;;;17.73;8.70;;;8.00;99.90;;;;;;5034246;28;20387;-84
2022/01/03 00:31:00;;;;;;;13.73;8.18;;;8.00;99.90;;;;;;5033024;28;20025;-84
2022/01/03 00:33:27;;;;;;;14.68;8.90;;;8.00;99.90;;;;;;5034303;28;20025;-84
2022/01/03 00:35:59;;;;;;;16.20;7.93;;;8.00;99.90;;;;;;5032907;28;20105;-84
2022/01/03 00:38:27;;;;;;;12.73;7.90;;;8.00;99.90;;;;;;5034171;28;20028;-84
2022/01/03 00:40:53;;;;;;;11.77;7.95;;;7.90;99.90;;;;;;5032670;28;20075;-84
2022/01/03 00:43:19;;;;;;;15.80;8.32;;;7.90;99.90;;;;;;5032798;28;20037;-84
2022/01/03 00:45:45;;;;;;;15.70;9.00;;;7.90;99.90;;;;;;5042231;28;20368;-84
2022/01/03 00:48:12;;;;;;;14.40;8.82;;;7.80;99.90;;;;;;5052647;28;20027;-84
2022/01/03 00:50:38;;;;;;;15.20;8.85;;;7.80;99.90;;;;;;5053784;28;20029;-84
2022/01/03 00:53:04;;;;;;;12.13;8.88;;;7.80;99.90;;;;;;5052595;28;20128;-83
2022/01/03 00:55:30;;;;;;;11.57;7.95;;;7.80;99.90;;;;;;5052500;28;20017;-83
2022/01/03 00:58:09;;;;;;;11.43;8.00;;;7.80;99.90;;;;;;5052418;28;20013;-84
2022/01/03 01:00:37;;;;;;;14.68;8.30;;;7.80;99.90;;;;;;5052198;28;20118;-84
2022/01/03 01:03:04;;;;;;;14.18;7.90;;;7.80;99.90;;;;;;5053748;28;20470;-84
2022/01/03 01:05:30;;;;;;;13.55;8.32;;;7.80;99.90;;;;;;5051978;28;20040;-82
2022/01/03 01:07:57;;;;;;;11.63;7.57;;;7.80;99.90;;;;;;5053583;28;20025;-83
2022/01/03 01:10:31;;;;;;;12.25;7.07;;;7.80;99.90;;;;;;5053412;28;20099;-83
2022/01/03 01:12:57;;;;;;;11.95;7.18;;;7.70;99.90;;;;;;5053633;28;20487;-83
2022/01/03 01:15:25;;;;;;;14.82;7.68;;;7.70;99.90;;;;;;5052055;28;20036;-83
2022/01/03 01:17:53;;;;;;;13.00;8.00;;;7.70;99.90;;;;;;5053303;28;20025;-83
2022/01/03 01:20:20;;;;;;;13.02;8.00;;;7.70;99.90;;;;;;5053181;28;20032;-83
2022/01/03 01:22:46;;;;;;;14.32;8.65;;;7.70;99.90;;;;;;5051777;28;20116;-83
2022/01/03 01:27:48;;;;;;;13.82;7.47;;;7.70;99.90;;;;;;5053434;28;20503;-83
2022/01/03 01:30:19;;;;;;;12.60;7.70;;;7.60;99.90;;;;;;5052017;28;20079;-82
2022/01/03 01:33:08;;;;;;;19.17;12.95;;;7.60;99.90;;;;;;5051783;28;20078;-83
2022/01/03 01:35:53;;;;;;;13.77;8.05;;;7.60;99.90;;;;;;5052962;28;20024;-83
2022/01/03 01:38:22;;;;;;;12.65;7.35;;;7.60;99.90;;;;;;5051760;28;20036;-83
2022/01/03 01:40:56;;;;;;;10.98;6.68;;;7.60;99.90;;;;;;5051613;28;20093;-83
2022/01/03 01:43:34;;;;;;;11.27;7.50;;;7.60;99.90;;;;;;5052924;28;20103;-83
2022/01/03 01:46:04;;;;;;;11.27;6.90;;;7.60;99.90;;;;;;5051505;28;20053;-83
2022/01/03 01:48:33;;;;;;;11.48;7.18;;;7.60;99.90;;;;;;5051546;28;20547;-83
2022/01/03 01:51:00;;;;;;;13.27;7.07;;;7.60;99.90;;;;;;5052666;28;20017;-83
2022/01/03 01:53:26;;;;;;;12.43;7.15;;;7.50;99.90;;;;;;5051414;28;20497;-82
2022/01/03 01:55:54;;;;;;;11.57;6.97;;;7.60;99.90;;;;;;5051674;28;20025;-82
2022/01/03 01:58:29;;;;;;;14.38;8.23;;;7.50;99.90;;;;;;5051293;28;20025;-82
2022/01/03 02:01:05;;;;;;;15.73;7.20;;;7.50;99.90;;;;;;5052531;28;20025;-82
2022/01/03 02:03:38;;;;;;;12.13;7.70;;;7.50;99.90;;;;;;5052240;28;20060;-83
2022/01/03 02:06:14;;;;;;;11.98;6.57;;;7.50;99.90;;;;;;5047646;28;20028;-82
2022/01/03 02:09:03;;;;;;;8.98;6.88;;;7.50;99.90;;;;;;5051035;28;20029;-83
2022/01/03 02:11:52;;;;;;;12.77;7.70;;;7.50;99.90;;;;;;5051022;28;20467;-83
2022/01/03 02:14:20;;;;;;;10.90;7.38;;;7.50;99.90;;;;;;5051413;28;20064;-83
2022/01/03 02:16:46;;;;;;;11.15;6.32;;;7.50;99.90;;;;;;5050911;28;20429;-83
2022/01/03 02:19:13;;;;;;;8.70;6.18;;;7.40;99.90;;;;;;5050837;28;20021;-83
2022/01/03 02:21:39;;;;;;;10.75;6.15;;;7.50;99.90;;;;;;5052083;28;20082;-82
2022/01/03 02:24:05;;;;;;;9.70;6.30;;;7.50;99.90;;;;;;5052150;28;20032;-83
2022/01/03 02:26:32;;;;;;;10.82;6.22;;;7.50;99.90;;;;;;5051877;28;20041;-83
2022/01/03 02:28:58;;;;;;;10.30;6.47;;;7.50;99.90;;;;;;5052044;28;20017;-83
2022/01/03 02:31:24;;;;;;;10.55;6.18;;;7.50;99.90;;;;;;5048665;28;20101;-83
2022/01/03 02:33:50;;;;;;;9.65;6.07;;;7.40;99.90;;;;;;5036884;28;20430;-83
2022/01/03 02:36:17;;;;;;;10.18;6.85;;;7.40;99.90;;;;;;5036661;28;20479;-83
2022/01/03 02:38:43;;;;;;;9.90;6.20;;;7.40;99.90;;;;;;5035510;28;20021;-82
2022/01/03 02:41:09;;;;;;;10.85;6.47;;;7.40;99.90;;;;;;5034698;28;20021;-82
2022/01/03 02:43:35;;;;;;;12.30;6.85;;;7.40;99.90;;;;;;5033216;28;20021;-82
2022/01/03 02:46:01;;;;;;;10.93;6.47;;;7.40;99.90;;;;;;5034289;28;20037;-83
2022/01/03 02:48:27;;;;;;;13.65;6.90;;;7.40;99.90;;;;;;5039412;28;20106;-83
2022/01/03 02:50:53;;;;;;;8.55;6.07;;;7.50;99.90;;;;;;5037657;28;20458;-83
2022/01/03 02:53:20;;;;;;;9.23;6.13;;;7.50;99.90;;;;;;5033027;28;20029;-82
2022/01/03 02:55:46;;;;;;;9.57;6.35;;;7.40;99.90;;;;;;5039164;28;20033;-83
2022/01/03 02:58:12;;;;;;;10.70;7.70;;;7.40;99.90;;;;;;5030959;28;20044;-82
2022/01/03 03:00:45;;;;;;;12.05;7.07;;;7.40;99.90;;;;;;5028416;28;20422;-82
2022/01/03 03:03:12;;;;;;;12.48;7.50;;;7.40;99.90;;;;;;5042482;28;20832;-82
2022/01/03 03:05:38;;;;;;;12.80;7.07;;;7.40;99.90;;;;;;5033383;28;20487;-82
2022/01/03 03:08:03;;;;;;;12.50;7.82;;;7.40;99.90;;;;;;5032036;28;20021;-82
2022/01/03 03:10:29;;;;;;;9.93;6.80;;;7.40;99.90;;;;;;5036135;28;20022;-82
2022/01/03 03:12:55;;;;;;;13.75;8.10;;;7.30;99.90;;;;;;5032480;28;20112;-82
2022/01/03 03:15:21;;;;;;;12.30;6.55;;;7.30;99.90;;;;;;5031559;28;20502;-82
2022/01/03 03:17:47;;;;;;;12.38;8.13;;;7.30;99.90;;;;;;5033257;28;20546;-82
2022/01/03 03:20:19;;;;;;;16.98;9.05;;;7.30;99.90;;;;;;5032616;28;20072;-82
2022/01/03 03:22:49;;;;;;;9.68;7.82;;;7.20;99.90;;;;;;5039885;28;20395;-82
2022/01/03 03:25:18;;;;;;;14.15;7.65;;;7.30;99.90;;;;;;5033970;28;20395;-82
2022/01/03 03:27:47;;;;;;;13.05;7.38;;;7.20;99.90;;;;;;5036926;28;20052;-83
2022/01/03 03:30:24;;;;;;;14.15;7.43;;;7.10;99.90;;;;;;5032833;28;20539;-82
2022/01/03 03:32:53;;;;;;;10.00;6.97;;;7.20;99.90;;;;;;5032127;28;20029;-83
2022/01/03 03:35:18;;;;;;;13.45;6.93;;;7.20;99.90;;;;;;5033984;28;20022;-83
2022/01/03 03:37:44;;;;;;;13.27;7.90;;;7.20;99.90;;;;;;5031250;28;20109;-83
2022/01/03 03:40:11;;;;;;;15.25;7.68;;;7.10;99.90;;;;;;5048192;28;20021;-82
2022/01/03 03:42:37;;;;;;;11.60;7.65;;;7.20;99.90;;;;;;5033020;28;20022;-82
2022/01/03 03:45:04;;;;;;;13.07;6.63;;;7.20;99.90;;;;;;5029730;28;20033;-82
2022/01/03 03:47:29;;;;;;;13.23;7.43;;;7.10;99.90;;;;;;5034633;28;20033;-83
2022/01/03 03:49:55;;;;;;;14.00;8.27;;;7.10;99.90;;;;;;5038131;28;20026;-83
2022/01/03 03:52:20;;;;;;;10.80;7.07;;;7.20;99.90;;;;;;5036080;28;20029;-83
2022/01/03 03:54:46;;;;;;;13.45;7.55;;;7.20;99.90;;;;;;5042729;28;20098;-83
2022/01/03 03:57:12;;;;;;;14.05;7.85;;;7.20;99.90;;;;;;5041925;28;20021;-83
2022/01/03 03:59:38;;;;;;;12.10;7.50;;;7.20;99.90;;;;;;5036652;28;20078;-83
2022/01/03 04:02:05;;;;;;;13.30;8.73;;;7.20;99.90;;;;;;5035281;28;20431;-83
2022/01/03 04:04:31;;;;;;;11.45;7.15;;;7.20;99.90;;;;;;5041982;28;20345;-83
2022/01/03 04:06:56;;;;;;;13.63;7.20;;;7.20;99.90;;;;;;5038604;28;20045;-83
2022/01/03 04:09:22;;;;;;;16.65;8.70;;;7.20;99.90;;;;;;5037678;28;20036;-83
2022/01/03 04:11:48;;;;;;;13.38;7.00;;;7.20;99.90;;;;;;5033694;28;20052;-83
2022/01/03 04:14:14;;;;;;;13.35;7.10;;;7.20;99.90;;;;;;5047444;28;20474;-83
2022/01/03 04:16:39;;;;;;;13.63;7.03;;;7.20;99.90;;;;;;5054639;28;20401;-82
2022/01/03 04:19:05;;;;;;;11.18;6.50;;;7.10;99.90;;;;;;5042093;28;20033;-82
2022/01/03 04:21:32;;;;;;;12.50;7.00;;;7.10;99.90;;;;;;5034438;28;20373;-82
2022/01/03 04:23:58;;;;;;;11.88;6.57;;;7.10;99.90;;;;;;5033122;28;20383;-82
2022/01/03 04:26:24;;;;;;;14.23;6.57;;;7.10;99.90;;;;;;5033153;28;20557;-82
2022/01/03 04:28:49;;;;;;;9.70;6.30;;;7.10;99.90;;;;;;5032940;28;20113;-82
2022/01/03 04:31:15;;;;;;;7.68;6.05;;;7.20;99.90;;;;;;5039467;28;20032;-82
2022/01/03 04:33:42;;;;;;;8.82;6.07;;;7.10;99.90;;;;;;5052852;28;20100;-82
2022/01/03 04:36:09;;;;;;;15.10;7.40;;;7.10;99.90;;;;;;5052803;28;20025;-82
2022/01/03 04:38:35;;;;;;;10.18;6.72;;;7.20;99.90;;;;;;5052737;28;20486;-82
2022/01/03 04:41:01;;;;;;;10.73;6.90;;;7.20;99.90;;;;;;5053055;28;20036;-82
2022/01/03 04:43:27;;;;;;;8.75;5.85;;;7.20;99.90;;;;;;5052696;28;20025;-82
2022/01/03 04:45:54;;;;;;;8.40;6.03;;;7.20;99.90;;;;;;5052641;28;20486;-82
2022/01/03 04:48:20;;;;;;;9.43;5.82;;;7.20;99.90;;;;;;5052651;28;20095;-82
2022/01/03 04:50:46;;;;;;;10.30;6.45;;;7.30;99.90;;;;;;5053828;28;20032;-82
2022/01/03 04:53:12;;;;;;;8.27;5.85;;;7.30;99.90;;;;;;5041159;28;20438;-82
2022/01/03 04:55:37;;;;;;;10.35;5.97;;;7.30;99.90;;;;;;5032461;28;20029;-82
2022/01/03 04:58:03;;;;;;;8.63;5.68;;;7.30;99.90;;;;;;5033376;28;20538;-83
2022/01/03 05:00:28;;;;;;;14.35;6.50;;;7.30;99.90;;;;;;5041740;28;20486;-83
2022/01/03 05:02:54;;;;;;;9.25;6.03;;;7.40;99.90;;;;;;5053789;28;20480;-83
2022/01/03 05:05:21;;;;;;;10.82;6.20;;;7.40;99.90;;;;;;5035508;28;20249;-83
2022/01/03 05:07:47;;;;;;;11.02;5.50;;;7.40;99.90;;;;;;5033608;28;20540;-83
2022/01/03 05:10:13;;;;;;;10.57;6.10;;;7.40;99.90;;;;;;5032235;28;20120;-83
2022/01/03 05:12:39;;;;;;;39.13;16.58;;;7.40;99.90;;;;;;5032201;28;20021;-83
2022/01/03 05:15:05;;;;;;;183.30;79.15;;;7.40;99.90;;;;;;5033507;28;20025;-83
2022/01/03 05:17:31;;;;;;;188.02;77.55;;;7.40;99.90;;;;;;5039084;28;20033;-83
2022/01/03 05:19:58;;;;;;;433.15;170.60;;;7.40;99.90;;;;;;5053427;28;20398;-83
2022/01/03 05:22:23;;;;;;;339.90;121.85;;;7.40;99.90;;;;;;5053234;28;20021;-83
2022/01/03 05:24:49;;;;;;;95.38;24.45;;;7.40;99.90;;;;;;5051756;28;20040;-83
2022/01/03 05:27:14;;;;;;;152.23;41.45;;;7.30;99.90;;;;;;5052016;28;20119;-83
2022/01/03 05:29:40;;;;;;;204.73;75.32;;;7.30;99.90;;;;;;5051793;28;20111;-78
2022/01/03 05:32:06;;;;;;;228.57;62.85;;;7.20;99.90;;;;;;5051841;28;20029;-83
2022/01/03 05:34:31;;;;;;;47.85;15.13;;;7.20;99.90;;;;;;5053002;28;20031;-82
2022/01/03 05:36:57;;;;;;;87.70;22.88;;;7.10;99.90;;;;;;5048535;28;20091;-83
2022/01/03 05:39:23;;;;;;;187.73;64.32;;;7.00;99.90;;;;;;5047105;28;20037;-83
2022/01/03 05:41:48;;;;;;;235.27;72.95;;;7.00;99.90;;;;;;5032978;28;20025;-83
2022/01/03 05:44:14;;;;;;;168.77;45.03;;;6.90;99.90;;;;;;5031663;28;20034;-83
2022/01/03 05:46:39;;;;;;;61.38;19.42;;;6.90;99.90;;;;;;5031545;28;20040;-83
2022/01/03 05:49:07;;;;;;;155.15;40.15;;;6.90;99.90;;;;;;5031573;28;20395;-83
2022/01/03 05:51:32;;;;;;;127.03;42.60;;;6.80;99.90;;;;;;5032716;28;20014;-83
2022/01/03 05:54:01;;;;;;;113.15;32.60;;;6.80;99.90;;;;;;5033120;28;20033;-83
2022/01/03 05:56:27;;;;;;;67.82;18.83;;;6.70;99.90;;;;;;5032680;28;20017;-82
2022/01/03 05:58:52;;;;;;;52.53;15.82;;;6.70;99.90;;;;;;5031380;28;20032;-83
2022/01/03 06:01:22;;;;;;;59.88;17.42;;;6.70;99.90;;;;;;5032611;28;20530;-83
2022/01/03 06:03:57;;;;;;;328.88;116.00;;;6.60;99.90;;;;;;5032643;28;20471;-82
2022/01/03 06:06:53;;;;;;;179.55;63.13;;;6.60;99.90;;;;;;5032517;28;20121;-83
2022/01/03 06:09:08;;;;;;;97.25;29.27;;;6.60;99.90;;;;;;5031500;28;20403;-83
2022/01/03 06:11:34;;;;;;;66.50;23.88;;;6.60;99.90;;;;;;5031787;28;20316;-83
2022/01/03 06:14:00;;;;;;;32.25;11.85;;;6.50;99.90;;;;;;5031354;28;20121;-83
2022/01/03 06:16:25;;;;;;;33.45;12.55;;;6.50;99.90;;;;;;5031023;28;20104;-82
2022/01/03 06:18:51;;;;;;;74.75;26.48;;;6.50;99.90;;;;;;5028973;28;20056;-83
2022/01/03 06:21:17;;;;;;;65.60;21.90;;;6.50;99.90;;;;;;5028959;28;20049;-83
2022/01/03 06:23:43;;;;;;;53.50;20.88;;;6.40;99.90;;;;;;5029169;28;20494;-83
2022/01/03 06:26:08;;;;;;;74.20;28.98;;;6.40;99.90;;;;;;5030523;28;20091;-82
2022/01/03 06:28:34;;;;;;;108.43;47.40;;;6.40;99.90;;;;;;5029052;28;20497;-85
2022/01/03 06:30:59;;;;;;;72.57;26.60;;;6.40;99.90;;;;;;5030824;28;20387;-81
2022/01/03 06:33:25;;;;;;;45.30;18.58;;;6.40;99.90;;;;;;5032113;28;20029;-81
2022/01/03 06:35:50;;;;;;;35.85;16.25;;;6.40;99.90;;;;;;5036660;28;20104;-83
2022/01/03 06:38:16;;;;;;;38.65;15.70;;;6.40;99.90;;;;;;5030944;28;20032;-84
2022/01/03 06:40:41;;;;;;;51.95;23.60;;;6.40;99.90;;;;;;5037663;28;20069;-89
2022/01/03 06:43:07;;;;;;;34.17;15.18;;;6.40;99.90;;;;;;5049338;28;20458;-83
2022/01/03 06:45:33;;;;;;;51.97;20.67;;;6.40;99.90;;;;;;5049280;28;20509;-83
2022/01/03 06:47:58;;;;;;;34.75;15.38;;;6.40;99.90;;;;;;5040776;28;20021;-84
2022/01/03 06:50:24;;;;;;;28.70;13.70;;;6.40;99.90;;;;;;5048094;28;20048;-82
2022/01/03 06:52:50;;;;;;;36.83;17.65;;;6.40;99.90;;;;;;5046253;28;20021;-81
2022/01/03 06:55:15;;;;;;;42.10;26.30;;;6.40;99.90;;;;;;5044756;28;20129;-82
2022/01/03 06:57:41;;;;;;;66.47;25.38;;;6.40;99.90;;;;;;5049827;28;20478;-81
2022/01/03 07:00:07;;;;;;;31.17;12.98;;;6.50;99.90;;;;;;5048177;28;20031;-82
2022/01/03 07:02:33;;;;;;;24.65;10.20;;;6.40;99.90;;;;;;5045964;28;20075;-82
2022/01/03 07:04:58;;;;;;;28.90;13.27;;;6.40;99.90;;;;;;5043792;28;20036;-82
2022/01/03 07:07:24;;;;;;;26.15;14.55;;;6.40;99.90;;;;;;5046581;28;20684;-82
2022/01/03 07:09:49;;;;;;;30.02;14.85;;;6.50;99.90;;;;;;5043909;28;20108;-83
2022/01/03 07:12:16;;;;;;;18.70;9.18;;;6.50;99.90;;;;;;5046186;28;20083;-83
2022/01/03 07:19:56;;;;;;;20.63;12.32;;;6.50;99.90;;;;;;5047730;28;20055;-84
2022/01/03 07:22:22;;;;;;;39.38;18.70;;;6.50;99.90;;;;;;5048418;28;20593;-87
2022/01/03 07:24:48;;;;;;;17.50;9.00;;;6.50;99.90;;;;;;5047247;28;20065;-84
2022/01/03 07:27:14;;;;;;;22.70;10.35;;;6.50;99.90;;;;;;5049070;28;20360;-83
2022/01/03 07:29:40;;;;;;;19.13;9.85;;;6.60;99.90;;;;;;5048331;28;20039;-83
2022/01/03 07:32:07;;;;;;;19.85;11.27;;;6.60;99.90;;;;;;5048686;28;20055;-84
2022/01/03 07:34:32;;;;;;;15.82;8.75;;;6.60;99.90;;;;;;5048914;28;21493;-83
2022/01/03 07:36:58;;;;;;;19.85;9.60;;;6.60;99.90;;;;;;5048576;28;20028;-83
2022/01/03 07:39:24;;;;;;;14.35;8.63;;;6.70;99.90;;;;;;5048117;28;20049;-83
2022/01/03 07:41:50;;;;;;;12.80;7.63;;;6.70;99.90;;;;;;5048445;28;20070;-83
2022/01/03 07:44:15;;;;;;;17.13;8.73;;;6.70;99.90;;;;;;5048539;28;20021;-83
2022/01/03 07:46:41;;;;;;;20.55;10.10;;;6.70;99.90;;;;;;5049410;28;20411;-83
2022/01/03 07:49:06;;;;;;;18.88;9.52;;;6.80;99.90;;;;;;5047966;28;20017;-83
2022/01/03 07:51:32;;;;;;;22.08;9.60;;;6.80;99.90;;;;;;5047946;28;20060;-82
2022/01/03 07:53:58;;;;;;;15.23;8.55;;;6.90;99.90;;;;;;5047171;28;20028;-82
2022/01/03 07:56:24;;;;;;;14.05;8.52;;;6.90;99.90;;;;;;5045212;28;20538;-82
2022/01/03 07:58:49;;;;;;;17.67;8.38;;;6.90;99.90;;;;;;5046717;28;20498;-83
2022/01/03 08:01:15;;;;;;;15.35;8.23;;;7.00;99.90;;;;;;5046521;28;20158;-83
2022/01/03 08:03:41;;;;;;;15.20;7.95;;;7.00;99.90;;;;;;5046711;28;20433;-82
2022/01/03 08:06:09;;;;;;;15.75;7.60;;;7.00;99.90;;;;;;5046413;28;20052;-82
2022/01/03 08:08:35;;;;;;;13.13;8.10;;;7.10;99.90;;;;;;5045355;28;20442;-83
2022/01/03 08:11:01;;;;;;;16.73;7.35;;;7.10;99.90;;;;;;5047688;28;20544;-83
2022/01/03 08:13:27;;;;;;;17.08;7.45;;;7.10;99.90;;;;;;5046645;28;20108;-83
2022/01/03 08:15:52;;;;;;;17.77;10.45;;;7.20;99.90;;;;;;5048196;28;20052;-83
2022/01/03 08:18:18;;;;;;;16.58;9.98;;;7.20;99.90;;;;;;5047878;28;20093;-83
2022/01/03 08:20:44;;;;;;;16.88;9.23;;;7.30;99.90;;;;;;5046943;28;20033;-83
2022/01/03 08:23:09;;;;;;;18.83;8.95;;;7.30;99.90;;;;;;5048205;28;20029;-85
2022/01/03 08:25:37;;;;;;;24.33;11.63;;;7.30;99.90;;;;;;5045904;28;20052;-83
2022/01/03 08:28:04;;;;;;;15.35;9.85;;;7.40;99.90;;;;;;5047109;28;20020;-84
2022/01/03 08:30:30;;;;;;;14.93;8.63;;;7.40;99.90;;;;;;5044954;28;20033;-83
2022/01/03 08:32:56;;;;;;;16.95;9.10;;;7.40;99.90;;;;;;5046535;28;20104;-83
2022/01/03 08:35:24;;;;;;;14.68;8.60;;;7.40;99.90;;;;;;5051079;28;20052;-83
2022/01/03 08:37:49;;;;;;;20.50;12.23;;;7.50;99.90;;;;;;5051830;28;20482;-83
2022/01/03 08:40:16;;;;;;;15.18;9.13;;;7.50;99.90;;;;;;5045496;28;20091;-83
2022/01/03 08:42:41;;;;;;;17.10;10.02;;;7.50;99.90;;;;;;5037527;28;20258;-83
2022/01/03 08:45:07;;;;;;;17.65;10.55;;;7.60;99.90;;;;;;5048221;28;20376;-83
2022/01/03 08:47:33;;;;;;;16.67;9.73;;;7.60;99.90;;;;;;5049851;28;20115;-83
2022/01/03 08:49:58;;;;;;;13.48;7.60;;;7.70;99.90;;;;;;5050117;28;20100;-83
2022/01/03 08:52:25;;;;;;;16.15;7.28;;;7.80;99.90;;;;;;5048203;28;20036;-82
2022/01/03 08:54:50;;;;;;;8.80;5.72;;;7.80;99.90;;;;;;5048864;28;20099;-83
2022/01/03 08:57:16;;;;;;;12.85;7.32;;;7.90;99.90;;;;;;5048079;28;20116;-83
2022/01/03 08:59:42;;;;;;;16.48;7.45;;;7.90;99.90;;;;;;5050718;28;20028;-83
2022/01/03 09:02:08;;;;;;;12.55;6.97;;;7.90;99.90;;;;;;5051174;28;20037;-82
2022/01/03 09:04:33;;;;;;;12.52;7.63;;;7.90;99.90;;;;;;5048642;28;20112;-82
2022/01/03 09:06:59;;;;;;;12.18;6.65;;;7.90;99.90;;;;;;5049828;28;20045;-83
2022/01/03 09:09:27;;;;;;;15.10;7.00;;;8.00;99.90;;;;;;5049334;28;20383;-83
2022/01/03 09:11:53;;;;;;;9.65;7.13;;;7.90;99.90;;;;;;5051204;28;20065;-83
2022/01/03 09:14:19;;;;;;;10.43;7.38;;;8.00;99.90;;;;;;5049916;28;20118;-85
2022/01/03 09:16:44;;;;;;;10.60;7.53;;;7.90;99.90;;;;;;5050728;28;20474;-81
2022/01/03 09:19:10;;;;;;;10.35;6.93;;;7.90;99.90;;;;;;5045136;28;20025;-81
2022/01/03 09:21:36;;;;;;;11.85;6.43;;;8.00;99.90;;;;;;5047553;28;20124;-81
2022/01/03 09:29:31;;;;;;;8.18;5.80;;;8.10;99.90;;;;;;5045620;28;20032;-81
2022/01/03 09:31:56;;;;;;;8.50;5.82;;;8.10;99.90;;;;;;5048426;28;20264;-81
2022/01/03 09:34:22;;;;;;;4.55;3.85;;;8.20;99.90;;;;;;5048678;28;20029;-82
2022/01/03 09:36:48;;;;;;;9.55;5.28;;;8.20;99.90;;;;;;5048709;28;20029;-81
2022/01/03 09:39:13;;;;;;;8.60;5.05;;;8.20;99.90;;;;;;5048726;28;20021;-82
2022/01/03 09:41:57;;;;;;;14.05;6.78;;;8.20;99.90;;;;;;5050349;28;20122;-82
2022/01/03 09:44:31;;;;;;;13.13;7.85;;;8.30;99.90;;;;;;5048999;28;20009;-82
2022/01/03 09:47:01;;;;;;;12.98;8.18;;;8.30;99.90;;;;;;5049005;28;20045;-82
2022/01/03 09:49:34;;;;;;;5.18;3.70;;;8.30;99.90;;;;;;5048320;28;20029;-83
2022/01/03 09:52:00;;;;;;;7.05;5.00;;;8.30;99.90;;;;;;5049384;28;20037;-83
2022/01/03 09:54:27;;;;;;;36.47;19.48;;;8.40;99.90;;;;;;5047047;28;20613;-82
2022/01/03 09:56:56;;;;;;;42.70;21.35;;;8.40;99.90;;;;;;5049332;28;20029;-82
2022/01/03 09:59:22;;;;;;;25.58;15.10;;;8.50;99.90;;;;;;5050374;28;20071;-82
2022/01/03 10:01:48;;;;;;;20.35;14.90;;;8.50;99.90;;;;;;5049395;28;20021;-82
2022/01/03 10:04:14;;;;;;;17.63;9.90;;;8.50;99.90;;;;;;5049252;28;20596;-82
2022/01/03 10:06:41;;;;;;;24.63;14.85;;;8.50;99.90;;;;;;5050496;28;20041;-82
2022/01/03 10:09:06;;;;;;;16.95;11.25;;;8.40;99.90;;;;;;5048896;28;20104;-81
2022/01/03 10:11:32;;;;;;;7.47;6.10;;;8.60;99.90;;;;;;5049271;28;20112;-81
2022/01/03 10:14:01;;;;;;;5.32;3.90;;;8.60;99.90;;;;;;5048942;28;20463;-82
2022/01/03 10:16:29;;;;;;;5.78;3.85;;;8.60;99.90;;;;;;5050488;28;20028;-82
2022/01/03 10:18:54;;;;;;;5.38;3.90;;;8.60;99.90;;;;;;5049029;28;20109;-82
2022/01/03 10:21:46;;;;;;;8.48;4.25;;;8.60;99.10;;;;;;5049799;28;20116;-81
2022/01/03 10:24:14;;;;;;;8.57;5.22;;;8.70;99.90;;;;;;5050099;28;20025;-81
2022/01/03 10:26:42;;;;;;;7.40;6.28;;;8.70;97.00;;;;;;5050358;28;20037;-81
2022/01/03 10:29:19;;;;;;;7.53;5.43;;;8.70;95.70;;;;;;5052105;28;20013;-82
2022/01/03 10:31:50;;;;;;;3.40;2.25;;;8.70;94.90;;;;;;5050374;28;20017;-81
2022/01/03 10:34:18;;;;;;;5.40;3.50;;;8.70;92.70;;;;;;5051957;28;20044;-81
2022/01/03 10:36:47;;;;;;;5.28;4.55;;;8.70;95.30;;;;;;5050544;28;20028;-80
2022/01/03 10:39:34;;;;;;;5.72;3.92;;;8.80;93.00;;;;;;5046800;28;20187;-80
2022/01/03 10:42:18;;;;;;;4.55;3.90;;;8.80;91.10;;;;;;5048742;28;20654;-80
2022/01/03 10:44:44;;;;;;;4.68;3.05;;;8.80;92.90;;;;;;5048475;28;20027;-81
2022/01/03 10:47:14;;;;;;;6.18;2.80;;;8.80;91.60;;;;;;5048165;28;20047;-81
2022/01/03 10:49:41;;;;;;;3.67;2.17;;;8.70;91.10;;;;;;5049461;28;20021;-80
2022/01/03 10:52:29;;;;;;;3.28;2.90;;;8.70;92.20;;;;;;5049613;28;20044;-81
2022/01/03 10:55:18;;;;;;;4.97;2.78;;;8.70;93.20;;;;;;5048192;28;20504;-80
2022/01/03 10:57:57;;;;;;;7.68;4.07;;;8.60;94.80;;;;;;5042245;28;20091;-79
2022/01/03 11:00:33;;;;;;;4.25;2.50;;;8.60;95.20;;;;;;5030734;28;20034;-80
2022/01/03 11:03:23;;;;;;;5.07;3.97;;;8.60;94.20;;;;;;5031192;28;20096;-81
2022/01/03 11:05:52;;;;;;;4.50;2.83;;;8.60;96.20;;;;;;5028991;28;20137;-81
2022/01/03 11:11:04;;;;;;;4.13;2.88;;;8.60;94.90;;;;;;5031107;28;20590;-81
2022/01/03 11:13:32;;;;;;;2.72;1.73;;;8.60;97.00;;;;;;5030320;28;20085;-80
2022/01/03 11:16:03;;;;;;;5.03;2.22;;;8.60;93.20;;;;;;5042175;28;20041;-80
2022/01/03 11:18:31;;;;;;;2.53;2.03;;;8.60;91.90;;;;;;5033415;28;20067;-80
2022/01/03 11:21:21;;;;;;;20.30;3.95;;;8.60;92.70;;;;;;5029333;28;20049;-81
2022/01/03 11:23:49;;;;;;;2.47;2.28;;;8.70;91.30;;;;;;5029682;28;20038;-82
2022/01/03 11:26:18;;;;;;;4.50;3.00;;;8.70;94.70;;;;;;5028269;28;20045;-81
2022/01/03 11:28:45;;;;;;;3.13;2.42;;;8.70;94.40;;;;;;5042692;28;20031;-81
2022/01/03 11:31:12;;;;;;;4.43;2.30;;;8.60;90.90;;;;;;5048824;28;20033;-81
2022/01/03 11:33:39;;;;;;;6.63;2.30;;;8.60;90.60;;;;;;5048999;28;20104;-81
2022/01/03 11:36:05;;;;;;;3.95;2.80;;;8.60;93.40;;;;;;5048856;28;20033;-81
2022/01/03 11:38:34;;;;;;;3.72;2.35;;;8.60;93.70;;;;;;5050282;28;20032;-81
2022/01/03 11:41:04;;;;;;;3.92;2.83;;;8.50;91.60;;;;;;5039407;28;20417;-80
2022/01/03 11:43:33;;;;;;;4.00;2.75;;;8.50;92.10;;;;;;5035791;28;20408;-80
2022/01/03 11:45:59;;;;;;;4.63;2.28;;;8.50;91.50;;;;;;5026659;28;20052;-78
2022/01/03 11:48:31;;;;;;;3.80;2.10;;;8.50;89.30;;;;;;5037181;28;20651;-79
2022/01/03 11:51:02;;;;;;;5.93;2.20;;;8.50;89.80;;;;;;5038773;28;20036;-79
2022/01/03 11:53:30;;;;;;;6.72;2.70;;;8.50;90.30;;;;;;5033733;28;20080;-79
2022/01/03 11:55:58;;;;;;;6.05;3.20;;;8.50;88.90;;;;;;5039069;28;20441;-79
2022/01/03 11:58:49;;;;;;;5.05;2.80;;;8.50;90.10;;;;;;5043281;28;20017;-79
2022/01/03 12:04:12;;;;;;;5.88;3.05;;;8.60;89.80;;;;;;5033633;28;20498;-78
2022/01/03 12:06:39;;;;;;;3.30;2.47;;;8.70;89.60;;;;;;5028231;28;20048;-78
2022/01/03 12:09:10;;;;;;;8.45;3.15;;;8.60;87.90;;;;;;5048985;28;20426;-78
2022/01/03 12:11:53;;;;;;;7.10;2.37;;;8.60;89.70;;;;;;5053820;28;20483;-78
2022/01/03 12:14:20;;;;;;;;;;;8.60;89.40;;;;;;5033323;28;20055;-79
2022/01/03 12:16:47;;;;;;;2.67;2.22;;;8.50;89.40;;;;;;5033850;28;19905;-82
2022/01/03 12:19:29;;;;;;;4.60;2.83;;;8.50;89.00;;;;;;5032795;28;20546;-80
2022/01/03 12:21:57;;;;;;;3.63;1.95;;;8.50;89.70;;;;;;5048452;28;20502;-84
2022/01/03 12:24:26;;;;;;;4.00;2.90;;;8.50;87.70;;;;;;5052360;28;20048;-81
2022/01/03 12:27:10;;;;;;;4.20;2.45;;;8.50;89.30;;;;;;5047979;28;20103;-81
2022/01/03 12:29:53;;;;;;;7.15;2.63;;;8.50;89.30;;;;;;5046144;28;20117;-81
2022/01/03 12:32:29;;;;;;;8.75;3.08;;;8.60;89.60;;;;;;5039835;28;20049;-82
2022/01/03 12:35:15;;;;;;;6.32;2.40;;;8.60;89.90;;;;;;5039883;28;20067;-81
2022/01/03 12:37:54;;;;;;;4.47;2.90;;;8.70;86.80;;;;;;5042714;28;20045;-81
2022/01/03 12:40:27;;;;;;;4.57;2.88;;;8.70;88.40;;;;;;5043732;28;20040;-80
2022/01/03 12:43:06;;;;;;;4.35;2.72;;;8.70;88.80;;;;;;5040796;28;20070;-80
2022/01/03 12:45:39;;;;;;;25.00;17.75;;;8.70;88.10;;;;;;5043298;28;20047;-80
2022/01/03 12:48:11;;;;;;;21.08;8.68;;;8.70;88.90;;;;;;5044601;28;20715;-81
2022/01/03 12:50:52;;;;;;;43.97;29.27;;;8.70;87.70;;;;;;5042751;28;20057;-80
2022/01/03 12:53:27;;;;;;;26.08;16.48;;;8.80;89.80;;;;;;5042479;28;20203;-80
2022/01/03 12:56:07;;;;;;;34.03;19.50;;;8.70;88.30;;;;;;5042926;28;20086;-80
2022/01/03 12:58:32;;;;;;;21.63;7.78;;;8.70;89.20;;;;;;5043432;28;20040;-79
2022/01/03 13:00:59;;;;;;;19.75;6.88;;;8.70;89.40;;;;;;5041075;28;20029;-79
2022/01/03 13:03:32;;;;;;;7.80;6.93;;;8.60;88.10;;;;;;5044341;28;20394;-81
2022/01/03 13:06:10;;;;;;;10.32;8.18;;;8.60;90.10;;;;;;5044150;28;20502;-81
2022/01/03 13:08:39;;;;;;;11.55;4.47;;;8.60;91.60;;;;;;5048000;28;20033;-81
2022/01/03 13:11:08;;;;;;;11.20;4.05;;;8.60;91.30;;;;;;5040975;28;20028;-80
2022/01/03 13:13:38;;;;;;;7.57;4.53;;;8.60;90.70;;;;;;5042435;28;20446;-85